Time;durP1;ratioP1;P1;durP2;ratioP2;P2;SDS_P1;SDS_P2;PMS_P1;PMS_P2;Temp;Humidity;BMP_temperature;BMP_pressure;BME280_temperature;BME280_humidity;BME280_pressure;Samples;Min_cycle;Max_cycle;Signal;HPM_P1;HPM_P2
2022/02/02 00:02:19;;;;;;;11.17;2.50;;;6.20;99.90;;;;;;4908095;29;20467;-42
2022/02/02 00:05:00;;;;;;;11.73;1.87;;;6.20;99.90;;;;;;4900285;29;20440;-55
2022/02/02 00:07:35;;;;;;;13.33;1.80;;;6.20;99.90;;;;;;4900203;29;20439;-61
2022/02/02 00:10:12;;;;;;;5.53;1.60;;;6.20;99.90;;;;;;4900964;29;20503;-62
2022/02/02 00:12:44;;;;;;;18.43;2.00;;;6.20;99.90;;;;;;4901134;29;20479;-63
2022/02/02 00:15:39;;;;;;;3.37;1.83;;;6.10;99.90;;;;;;4901016;29;20421;-50
2022/02/02 00:18:29;;;;;;;7.57;1.50;;;6.20;99.90;;;;;;4900015;29;20483;-57
2022/02/02 00:21:00;;;;;;;4.50;1.47;;;6.20;99.90;;;;;;4900662;29;20457;-61
2022/02/02 00:23:31;;;;;;;9.07;4.83;;;6.10;99.90;;;;;;4901186;29;20571;-61
2022/02/02 00:26:02;;;;;;;7.23;1.63;;;6.20;99.90;;;;;;4901408;29;20512;-58
2022/02/02 00:28:34;;;;;;;12.57;3.43;;;6.20;99.90;;;;;;4900627;29;20474;-55
2022/02/02 00:31:03;;;;;;;4.53;2.60;;;6.10;99.90;;;;;;4900659;29;20574;-52
2022/02/02 00:33:34;;;;;;;9.33;2.93;;;6.10;99.90;;;;;;4900400;29;20475;-64
2022/02/02 00:36:06;;;;;;;14.60;2.17;;;6.10;99.90;;;;;;4900482;29;20521;-53
2022/02/02 00:38:33;;;;;;;7.87;2.20;;;6.10;99.90;;;;;;4900155;29;20429;-60
2022/02/02 00:41:00;;;;;;;3.53;1.37;;;6.10;99.90;;;;;;4900432;29;20462;-61
2022/02/02 00:43:26;;;;;;;5.27;1.20;;;6.10;99.90;;;;;;4900300;29;20953;-52
2022/02/02 00:45:53;;;;;;;9.97;2.77;;;6.10;99.90;;;;;;4900426;29;20447;-56
2022/02/02 00:48:26;;;;;;;15.00;2.90;;;6.20;99.90;;;;;;4899979;29;20485;-53
2022/02/02 00:50:53;;;;;;;9.13;2.30;;;6.20;99.90;;;;;;4899892;29;20502;-54
2022/02/02 00:53:21;;;;;;;11.90;2.20;;;6.20;99.90;;;;;;4902579;29;20800;-55
2022/02/02 00:55:48;;;;;;;9.20;2.10;;;6.30;99.90;;;;;;4903517;29;20460;-57
2022/02/02 00:58:15;;;;;;;11.60;2.20;;;6.30;99.90;;;;;;4903299;29;20471;-52
2022/02/02 01:00:42;;;;;;;9.90;2.63;;;6.30;99.90;;;;;;4903106;29;20467;-52
2022/02/02 01:03:09;;;;;;;8.17;2.10;;;6.30;99.90;;;;;;4903460;29;20497;-50
2022/02/02 01:05:37;;;;;;;10.13;2.20;;;6.30;99.90;;;;;;4903216;29;20486;-55
2022/02/02 01:11:01;;;;;;;11.00;1.83;;;6.30;99.90;;;;;;4889124;29;20459;-56
2022/02/02 01:19:25;;;;;;;10.60;3.23;;;6.30;99.90;;;;;;4845473;29;20450;-52
2022/02/02 01:21:58;;;;;;;10.10;2.27;;;6.40;99.90;;;;;;4845697;29;20474;-55
2022/02/02 01:29:51;;;;;;;3.00;1.00;;;6.30;99.90;;;;;;4890753;29;20482;-49
2022/02/02 01:32:17;;;;;;;8.73;1.83;;;6.40;99.90;;;;;;4903258;29;20426;-48
2022/02/02 01:34:44;;;;;;;9.93;2.40;;;6.40;99.90;;;;;;4903170;29;20462;-55
2022/02/02 01:37:16;;;;;;;4.47;3.17;;;6.40;99.90;;;;;;4903402;29;20470;-53
2022/02/02 01:39:43;;;;;;;5.00;2.90;;;6.40;99.90;;;;;;4903887;29;20456;-51
2022/02/02 01:42:14;;;;;;;10.73;2.27;;;6.40;99.90;;;;;;4903582;29;20559;-53
2022/02/02 01:44:47;;;;;;;16.83;2.30;;;6.30;99.90;;;;;;4903524;29;20450;-57
2022/02/02 01:47:14;;;;;;;9.73;3.07;;;6.30;99.90;;;;;;4903054;29;20464;-51
2022/02/02 01:52:59;;;;;;;16.07;2.70;;;6.30;99.90;;;;;;4903049;29;20507;-53
2022/02/02 01:55:32;;;;;;;4.73;1.63;;;6.30;99.90;;;;;;4902412;29;20468;-53
2022/02/02 01:58:09;;;;;;;8.00;2.13;;;6.30;99.90;;;;;;4902233;29;20476;-49
2022/02/02 02:00:36;;;;;;;5.17;1.77;;;6.30;99.90;;;;;;4902520;29;20441;-49
2022/02/02 02:03:03;;;;;;;10.07;1.83;;;6.20;99.90;;;;;;4901939;29;20530;-49
2022/02/02 02:05:30;;;;;;;8.20;1.90;;;6.20;99.90;;;;;;4902315;29;20446;-50
2022/02/02 02:07:58;;;;;;;5.43;3.13;;;6.20;99.90;;;;;;4902801;29;20449;-48
2022/02/02 02:10:26;;;;;;;7.37;2.50;;;6.30;99.90;;;;;;4902279;29;20457;-54
2022/02/02 02:12:57;;;;;;;2.47;1.90;;;6.30;99.90;;;;;;4901878;29;20475;-51
2022/02/02 02:15:28;;;;;;;16.03;2.53;;;6.30;99.90;;;;;;4901691;29;20511;-53
2022/02/02 02:17:55;;;;;;;6.30;1.80;;;6.30;99.90;;;;;;4901952;29;20450;-56
2022/02/02 02:20:22;;;;;;;7.07;1.93;;;6.30;99.90;;;;;;4901680;29;20462;-50
2022/02/02 02:22:50;;;;;;;9.27;1.80;;;6.30;99.90;;;;;;4901775;29;20485;-49
2022/02/02 02:25:22;;;;;;;8.43;2.50;;;6.30;99.90;;;;;;4901932;29;20464;-56
2022/02/02 02:27:55;;;;;;;16.73;2.60;;;6.30;99.90;;;;;;4901494;29;20537;-54
2022/02/02 02:30:30;;;;;;;4.13;1.53;;;6.40;99.90;;;;;;4902399;29;20465;-54
2022/02/02 02:57:43;;;;;;;8.60;1.00;;;6.10;99.90;;;;;;4902942;29;20454;-63
2022/02/02 03:30:38;;;;;;;10.90;2.60;;;6.10;99.90;;;;;;4900903;29;20457;-57
2022/02/02 03:50:05;;;;;;;12.40;2.50;;;6.20;99.90;;;;;;4847605;29;20539;-55
2022/02/02 03:53:24;;;;;;;11.93;3.93;;;6.20;99.90;;;;;;4900520;29;20408;-56
2022/02/02 03:56:04;;;;;;;16.10;3.20;;;6.20;99.90;;;;;;4900791;29;20467;-55
2022/02/02 03:58:40;;;;;;;18.60;4.67;;;6.10;99.90;;;;;;4900255;29;20484;-55
2022/02/02 04:04:14;;;;;;;12.53;2.70;;;6.00;99.90;;;;;;4898836;29;20544;-54
2022/02/02 04:06:56;;;;;;;2.23;1.77;;;6.00;99.90;;;;;;4899895;29;20479;-47
2022/02/02 04:09:23;;;;;;;9.37;1.90;;;6.00;99.90;;;;;;4900189;29;20465;-52
2022/02/02 04:11:56;;;;;;;17.77;2.87;;;5.90;99.90;;;;;;4900738;29;20480;-55
2022/02/02 04:15:31;;;;;;;16.47;3.37;;;6.00;99.90;;;;;;4900512;29;20473;-51
2022/02/02 04:54:17;;;;;;;5.20;1.27;;;6.10;99.90;;;;;;4903593;29;20465;-52
2022/02/02 04:59:36;;;;;;;9.20;2.30;;;6.20;99.90;;;;;;4874946;29;20440;-59
2022/02/02 05:02:49;;;;;;;12.70;3.17;;;6.20;99.90;;;;;;4903780;29;20550;-54
2022/02/02 05:08:04;;;;;;;5.80;1.30;;;6.30;99.90;;;;;;4903423;29;20456;-53
2022/02/02 05:10:43;;;;;;;16.47;3.07;;;6.30;99.90;;;;;;4903226;29;20452;-50
2022/02/02 05:16:04;;;;;;;6.43;1.63;;;6.40;99.90;;;;;;4903439;29;20485;-54
2022/02/02 05:19:02;;;;;;;12.57;2.70;;;6.40;99.90;;;;;;4902299;29;20515;-55
2022/02/02 05:22:01;;;;;;;6.90;2.20;;;6.40;99.90;;;;;;4903032;29;20491;-52
2022/02/02 05:44:06;;;;;;;6.43;1.67;;;6.40;99.90;;;;;;4902967;29;20493;-56
2022/02/02 05:49:37;;;;;;;11.93;2.00;;;6.20;99.90;;;;;;4903737;29;20663;-56
2022/02/02 05:52:05;;;;;;;7.60;2.40;;;6.20;99.90;;;;;;4903859;29;20413;-50
2022/02/02 05:54:34;;;;;;;8.37;2.30;;;6.20;99.90;;;;;;4904177;29;20465;-50
2022/02/02 05:57:04;;;;;;;13.40;2.60;;;6.20;99.90;;;;;;4903680;29;20444;-56
2022/02/02 05:59:33;;;;;;;13.23;2.00;;;6.20;99.90;;;;;;4903205;29;20509;-56
2022/02/02 06:01:59;;;;;;;11.73;2.80;;;6.10;99.90;;;;;;4903593;29;20434;-46
2022/02/02 06:04:28;;;;;;;2.83;2.27;;;6.20;99.90;;;;;;4903798;29;20480;-57
2022/02/02 06:07:00;;;;;;;10.07;1.87;;;6.20;99.90;;;;;;4903514;29;20489;-60
2022/02/02 06:09:32;;;;;;;6.40;1.80;;;6.20;99.90;;;;;;4903073;29;20434;-52
2022/02/02 06:11:59;;;;;;;16.57;3.03;;;6.20;99.90;;;;;;4902846;29;20485;-57
2022/02/02 06:14:30;;;;;;;3.03;1.43;;;6.30;99.90;;;;;;4902983;29;20481;-57
2022/02/02 06:17:00;;;;;;;11.10;3.23;;;6.20;99.90;;;;;;4903269;29;20440;-62
2022/02/02 06:19:27;;;;;;;8.20;2.20;;;6.10;99.90;;;;;;4902495;29;20477;-54
2022/02/02 06:22:01;;;;;;;16.77;2.97;;;6.10;99.90;;;;;;4902461;29;20470;-59
2022/02/02 06:24:32;;;;;;;13.17;2.20;;;6.10;99.90;;;;;;4902218;29;20471;-63
2022/02/02 06:27:08;;;;;;;14.87;2.40;;;6.00;99.90;;;;;;4899705;29;20524;-55
2022/02/02 06:29:42;;;;;;;3.57;1.80;;;6.00;99.90;;;;;;4896494;29;20441;-59
2022/02/02 06:32:13;;;;;;;3.33;1.30;;;6.00;99.90;;;;;;4911219;29;20466;-58
2022/02/02 06:34:44;;;;;;;19.97;1.80;;;6.00;99.90;;;;;;4916953;29;20469;-54
2022/02/02 06:37:11;;;;;;;16.47;2.13;;;6.00;99.90;;;;;;4916832;29;20433;-59
2022/02/02 06:39:38;;;;;;;8.60;1.40;;;6.00;99.90;;;;;;4916343;29;20505;-56
2022/02/02 06:42:07;;;;;;;11.23;2.03;;;6.00;99.90;;;;;;4916966;29;20832;-58
2022/02/02 06:44:41;;;;;;;20.83;2.13;;;6.00;99.90;;;;;;4915689;29;20517;-59
2022/02/02 06:47:08;;;;;;;10.63;1.83;;;6.00;99.90;;;;;;4915888;29;20488;-58
2022/02/02 06:49:37;;;;;;;9.47;2.00;;;6.10;99.90;;;;;;4915107;29;20428;-58
2022/02/02 06:52:13;;;;;;;4.00;1.27;;;6.10;99.90;;;;;;4915713;29;20485;-58
2022/02/02 06:54:51;;;;;;;2.70;1.43;;;6.10;99.90;;;;;;4914322;29;20451;-58
2022/02/02 06:57:33;;;;;;;11.97;1.87;;;6.20;99.90;;;;;;4914158;29;20490;-58
2022/02/02 07:00:13;;;;;;;5.97;1.60;;;6.20;99.90;;;;;;4913887;29;20832;-55
2022/02/02 07:02:52;;;;;;;6.80;2.07;;;6.20;99.90;;;;;;4912111;29;20480;-56
2022/02/02 07:05:30;;;;;;;6.40;3.53;;;6.20;99.90;;;;;;4900290;29;20483;-60
2022/02/02 07:08:23;;;;;;;8.63;1.53;;;6.20;99.90;;;;;;4903462;29;20446;-55
2022/02/02 07:11:09;;;;;;;8.83;2.03;;;6.20;99.90;;;;;;4905458;29;20517;-58
2022/02/02 07:13:49;;;;;;;3.50;1.77;;;6.30;99.90;;;;;;4906754;29;20431;-56
2022/02/02 07:16:30;;;;;;;6.10;1.73;;;6.30;99.90;;;;;;4906428;29;20452;-55
2022/02/02 07:19:08;;;;;;;2.67;1.63;;;6.20;99.90;;;;;;4906191;29;20443;-59
2022/02/02 07:21:53;;;;;;;10.73;2.83;;;6.20;99.90;;;;;;4906844;29;20435;-58
2022/02/02 07:25:02;;;;;;;12.33;2.63;;;6.20;99.90;;;;;;4906936;29;20583;-59
2022/02/02 07:27:41;;;;;;;16.60;2.63;;;6.20;99.90;;;;;;4906998;29;20937;-57
2022/02/02 07:30:20;;;;;;;16.23;2.63;;;6.20;99.90;;;;;;4906119;29;21027;-58
2022/02/02 07:32:55;;;;;;;19.97;2.17;;;6.20;99.90;;;;;;4905259;29;20471;-55
2022/02/02 07:35:33;;;;;;;3.50;1.80;;;6.30;99.90;;;;;;4905675;29;20475;-59
2022/02/02 07:38:07;;;;;;;11.47;2.00;;;6.30;99.90;;;;;;4904852;29;20537;-59
2022/02/02 07:40:35;;;;;;;15.83;2.23;;;6.40;99.90;;;;;;4905024;29;20984;-59
2022/02/02 07:43:04;;;;;;;7.93;1.50;;;6.40;99.90;;;;;;4905785;29;20507;-58
2022/02/02 07:45:34;;;;;;;8.30;2.00;;;6.40;99.90;;;;;;4906851;29;20455;-57
2022/02/02 07:48:07;;;;;;;11.20;3.10;;;6.40;99.90;;;;;;4907804;29;20491;-57
2022/02/02 07:50:35;;;;;;;9.60;1.90;;;6.40;99.90;;;;;;4907257;29;20480;-59
2022/02/02 07:53:08;;;;;;;8.63;2.10;;;6.40;99.90;;;;;;4907356;29;20452;-55
2022/02/02 07:55:37;;;;;;;9.97;2.50;;;6.40;99.90;;;;;;4907443;29;20444;-58
2022/02/02 07:58:05;;;;;;;9.43;1.90;;;6.40;99.90;;;;;;4906443;29;20484;-55
2022/02/02 08:00:32;;;;;;;5.63;1.37;;;6.50;99.90;;;;;;4906688;29;20519;-56
2022/02/02 08:03:06;;;;;;;7.60;1.40;;;6.50;99.90;;;;;;4906107;29;20490;-59
2022/02/02 08:05:42;;;;;;;3.03;2.23;;;6.50;99.90;;;;;;4906277;29;20478;-57
2022/02/02 08:08:24;;;;;;;13.80;2.27;;;6.50;99.90;;;;;;4905331;29;20836;-59
2022/02/02 08:10:52;;;;;;;7.60;1.63;;;6.50;99.90;;;;;;4904967;29;20448;-59
2022/02/02 08:13:22;;;;;;;7.10;2.40;;;6.60;99.90;;;;;;4904581;29;20453;-54
2022/02/02 08:15:56;;;;;;;5.33;3.00;;;6.60;99.90;;;;;;4905187;29;20461;-54
2022/02/02 08:18:24;;;;;;;8.83;1.70;;;6.60;99.90;;;;;;4904796;29;20476;-58
2022/02/02 08:20:55;;;;;;;7.30;2.10;;;6.60;99.90;;;;;;4904308;29;20461;-59
2022/02/02 08:23:22;;;;;;;3.73;1.30;;;6.60;99.90;;;;;;4903896;29;20978;-57
2022/02/02 08:25:49;;;;;;;7.20;2.20;;;6.60;99.90;;;;;;4904115;29;20786;-57
2022/02/02 08:28:18;;;;;;;8.67;2.20;;;6.60;99.90;;;;;;4903517;29;20524;-58
2022/02/02 08:30:49;;;;;;;13.27;3.17;;;6.70;99.90;;;;;;4903963;29;20456;-58
2022/02/02 08:33:21;;;;;;;10.30;1.40;;;6.70;99.90;;;;;;4904216;29;20723;-59
2022/02/02 08:35:51;;;;;;;9.70;2.07;;;6.60;99.90;;;;;;4904187;29;20477;-58
2022/02/02 08:38:32;;;;;;;2.60;0.80;;;6.70;99.90;;;;;;4904316;29;20465;-54
2022/02/02 08:41:07;;;;;;;8.03;1.20;;;6.60;99.90;;;;;;4904856;29;20473;-58
2022/02/02 08:43:39;;;;;;;5.03;2.30;;;6.70;99.90;;;;;;4904688;29;20508;-60
2022/02/02 08:46:09;;;;;;;1.80;1.00;;;6.60;99.90;;;;;;4903133;29;20569;-56
2022/02/02 08:48:40;;;;;;;4.33;1.67;;;6.70;99.90;;;;;;4902981;29;20488;-56
2022/02/02 08:51:10;;;;;;;2.57;1.20;;;6.70;99.90;;;;;;4903223;29;20443;-58
2022/02/02 08:53:49;;;;;;;15.03;2.80;;;6.80;99.90;;;;;;4903300;29;20760;-58
2022/02/02 08:56:38;;;;;;;1.77;1.00;;;6.90;99.90;;;;;;4903852;29;20448;-58
2022/02/02 08:59:09;;;;;;;7.30;1.23;;;6.90;99.90;;;;;;4906662;29;20450;-59
2022/02/02 09:01:38;;;;;;;8.33;1.63;;;7.00;99.90;;;;;;4906854;29;20518;-62
2022/02/02 09:06:49;;;;;;;3.47;1.27;;;7.00;99.90;;;;;;4903019;29;20429;-59
2022/02/02 09:09:22;;;;;;;5.37;1.50;;;7.10;99.90;;;;;;4903262;29;20496;-56
2022/02/02 09:25:43;;;;;;;3.67;0.87;;;7.10;99.90;;;;;;4910949;29;20470;-59
2022/02/02 09:34:02;;;;;;;3.93;1.10;;;7.30;99.90;;;;;;4909798;29;20446;-61
2022/02/02 09:36:31;;;;;;;5.07;1.00;;;7.40;99.90;;;;;;4909563;29;20485;-60
2022/02/02 09:39:03;;;;;;;0.90;0.60;;;7.40;99.90;;;;;;4909676;29;20666;-60
2022/02/02 09:41:44;;;;;;;4.30;1.40;;;7.40;99.90;;;;;;4908893;29;20482;-57
2022/02/02 09:44:14;;;;;;;6.77;1.37;;;7.50;99.90;;;;;;4908738;29;20471;-58
2022/02/02 09:46:51;;;;;;;8.97;2.27;;;7.50;99.90;;;;;;4909586;29;20549;-59
2022/02/02 09:49:24;;;;;;;6.43;1.53;;;7.50;99.90;;;;;;4909277;29;20444;-58
2022/02/02 09:51:57;;;;;;;3.23;1.47;;;7.50;99.90;;;;;;4910663;29;20540;-60
2022/02/02 09:54:29;;;;;;;2.60;1.10;;;7.40;99.90;;;;;;4909466;29;20438;-61
2022/02/02 09:59:59;;;;;;;10.73;1.10;;;8.20;99.90;;;;;;4906930;29;20475;-60
2022/02/02 10:02:36;;;;;;;6.40;1.33;;;8.10;99.90;;;;;;4907587;29;20442;-59
2022/02/02 10:05:13;;;;;;;15.43;2.13;;;7.90;99.90;;;;;;4907928;29;21001;-59
2022/02/02 10:13:46;;;;;;;1.57;0.97;;;7.60;99.90;;;;;;4908710;29;20516;-60
2022/02/02 10:16:16;;;;;;;9.47;0.97;;;7.60;99.90;;;;;;4907970;29;20490;-61
2022/02/02 10:18:47;;;;;;;3.77;0.93;;;8.50;99.90;;;;;;4906656;29;20486;-59
2022/02/02 10:21:14;;;;;;;4.60;2.20;;;9.40;99.90;;;;;;4906820;29;20983;-60
2022/02/02 10:23:41;;;;;;;2.70;1.00;;;9.50;99.90;;;;;;4907423;29;20813;-60
2022/02/02 10:26:17;;;;;;;5.10;1.07;;;9.00;99.90;;;;;;4905523;29;20553;-58
2022/02/02 10:28:47;;;;;;;5.23;1.43;;;9.20;99.90;;;;;;4906798;29;20529;-60
2022/02/02 10:31:14;;;;;;;8.40;1.77;;;9.10;99.90;;;;;;4906730;29;20455;-60
2022/02/02 10:33:41;;;;;;;3.17;1.53;;;8.90;99.90;;;;;;4906764;29;20423;-59
2022/02/02 10:36:13;;;;;;;6.73;1.40;;;8.60;99.90;;;;;;4907019;29;20487;-62
2022/02/02 10:38:48;;;;;;;2.60;1.17;;;8.30;99.90;;;;;;4906121;29;20551;-60
2022/02/02 10:41:26;;;;;;;2.40;1.07;;;8.10;99.90;;;;;;4907123;29;20745;-61
2022/02/02 10:43:57;;;;;;;8.00;1.70;;;8.00;99.90;;;;;;4906139;29;20496;-61
2022/02/02 10:46:30;;;;;;;8.73;1.57;;;7.90;99.90;;;;;;4906513;29;20506;-62
2022/02/02 10:49:10;;;;;;;5.43;1.37;;;7.90;99.90;;;;;;4905714;29;20486;-57
2022/02/02 10:51:41;;;;;;;5.90;3.27;;;7.80;99.90;;;;;;4907798;29;20449;-61
2022/02/02 10:54:19;;;;;;;4.27;1.10;;;7.50;99.90;;;;;;4908921;29;20482;-56
2022/02/02 10:56:51;;;;;;;2.37;1.30;;;7.50;99.90;;;;;;4908262;29;20483;-58
2022/02/02 10:59:44;;;;;;;2.80;1.40;;;7.60;99.90;;;;;;4907385;29;20870;-57
2022/02/02 11:07:44;;;;;;;11.53;2.13;;;7.60;99.90;;;;;;4907227;29;20477;-60
2022/02/02 11:10:13;;;;;;;1.30;0.80;;;7.60;99.90;;;;;;4906871;29;20918;-59
2022/02/02 11:12:41;;;;;;;4.60;1.37;;;7.60;99.90;;;;;;4906184;29;20445;-60
2022/02/02 11:15:18;;;;;;;10.70;1.90;;;7.60;99.90;;;;;;4906517;29;20500;-61
2022/02/02 11:17:52;;;;;;;10.00;1.47;;;7.50;99.90;;;;;;4906638;29;20487;-57
2022/02/02 11:20:23;;;;;;;1.60;1.20;;;7.30;99.90;;;;;;4906709;29;20446;-61
2022/02/02 11:22:51;;;;;;;14.10;1.53;;;7.30;99.90;;;;;;4906821;29;20505;-57
2022/02/02 11:25:34;;;;;;;13.83;1.50;;;7.30;99.90;;;;;;4907020;29;20501;-61
2022/02/02 11:28:05;;;;;;;5.20;1.60;;;7.40;99.90;;;;;;4907107;29;20475;-58
2022/02/02 11:30:44;;;;;;;20.37;1.90;;;7.30;99.90;;;;;;4907161;29;20443;-60
2022/02/02 11:33:48;;;;;;;2.93;1.20;;;7.30;99.90;;;;;;4906227;29;20524;-61
2022/02/02 11:36:29;;;;;;;4.43;1.30;;;7.30;99.90;;;;;;4894882;29;21185;-60
2022/02/02 11:38:58;;;;;;;5.70;1.07;;;7.40;99.90;;;;;;4906674;29;21006;-60
2022/02/02 11:44:14;;;;;;;4.40;1.53;;;7.40;99.90;;;;;;4906143;29;20945;-58
2022/02/02 11:46:46;;;;;;;0.90;0.80;;;7.40;99.90;;;;;;4906229;29;20469;-59
2022/02/02 11:49:17;;;;;;;5.50;1.47;;;7.20;99.90;;;;;;4907199;29;20475;-61
2022/02/02 11:51:46;;;;;;;7.97;1.63;;;7.20;99.90;;;;;;4907275;29;20433;-60
2022/02/02 11:54:15;;;;;;;3.23;1.03;;;7.20;99.90;;;;;;4907410;29;20514;-57
2022/02/02 11:57:21;;;;;;;4.90;1.10;;;7.30;99.90;;;;;;4907379;29;20504;-61
2022/02/02 11:59:58;;;;;;;1.73;0.97;;;7.30;99.90;;;;;;4906990;29;20465;-59
2022/02/02 12:02:50;;;;;;;2.20;0.80;;;7.30;99.90;;;;;;4906098;29;20473;-60
2022/02/02 12:05:32;;;;;;;4.87;1.03;;;7.40;99.90;;;;;;4905265;29;20502;-59
2022/02/02 12:08:10;;;;;;;6.63;0.90;;;7.40;99.90;;;;;;4904927;29;20475;-60
2022/02/02 12:10:57;;;;;;;2.73;1.70;;;7.50;99.90;;;;;;4906024;29;20450;-59
2022/02/02 12:28:05;;;;;;;5.03;1.20;;;7.10;99.90;;;;;;4905834;29;20507;-59
2022/02/02 12:47:51;;;;;;;1.87;1.03;;;7.10;99.90;;;;;;4906850;29;20464;-61
2022/02/02 12:56:21;;;;;;;0.87;0.60;;;7.20;99.90;;;;;;4909529;29;20497;-58
2022/02/02 12:58:50;;;;;;;1.30;1.00;;;7.20;99.90;;;;;;4911179;29;20433;-55
2022/02/02 13:01:21;;;;;;;1.10;1.00;;;7.20;99.90;;;;;;4910668;29;20521;-60
2022/02/02 13:03:49;;;;;;;1.63;0.70;;;7.20;99.90;;;;;;4911630;29;20430;-57
2022/02/02 13:06:18;;;;;;;1.13;0.80;;;7.20;99.90;;;;;;4911305;29;20617;-60
2022/02/02 13:08:49;;;;;;;1.40;1.00;;;7.10;99.90;;;;;;4910604;29;20477;-59
2022/02/02 13:11:23;;;;;;;9.10;1.73;;;7.20;99.90;;;;;;4910764;29;20515;-59
2022/02/02 13:13:50;;;;;;;1.70;0.70;;;7.30;99.90;;;;;;4909853;29;20480;-59
2022/02/02 13:16:24;;;;;;;1.43;0.90;;;7.40;99.90;;;;;;4911473;29;20442;-59
2022/02/02 13:18:54;;;;;;;2.87;1.20;;;7.40;99.90;;;;;;4911846;29;20517;-55
2022/02/02 13:21:26;;;;;;;5.40;1.10;;;7.40;99.90;;;;;;4911061;29;20442;-55
2022/02/02 13:24:00;;;;;;;3.47;1.90;;;7.30;99.90;;;;;;4910916;29;20481;-60
2022/02/02 13:26:32;;;;;;;1.13;1.00;;;7.30;99.90;;;;;;4910751;29;20463;-59
2022/02/02 13:29:06;;;;;;;2.60;0.60;;;7.40;99.90;;;;;;4909555;29;20465;-58
2022/02/02 13:31:51;;;;;;;2.40;1.20;;;7.50;99.90;;;;;;4909522;29;20475;-59
2022/02/02 13:34:28;;;;;;;1.27;0.90;;;7.60;99.90;;;;;;4908989;29;20449;-59
2022/02/02 13:37:35;;;;;;;3.57;1.23;;;7.60;99.90;;;;;;4909539;29;20436;-60
2022/02/02 13:46:04;;;;;;;1.77;0.80;;;7.30;99.90;;;;;;4896915;29;20485;-56
2022/02/02 13:54:35;;;;;;;2.13;0.80;;;7.30;99.90;;;;;;4908211;29;20424;-57
2022/02/02 13:57:30;;;;;;;1.57;0.77;;;7.50;99.90;;;;;;4907637;29;20457;-58
2022/02/02 14:00:23;;;;;;;5.30;0.90;;;7.60;99.90;;;;;;4907277;29;20952;-57
2022/02/02 14:05:58;;;;;;;3.33;1.17;;;7.70;99.90;;;;;;4893699;29;20497;-60
2022/02/02 14:26:05;;;;;;;2.70;0.80;;;7.30;99.90;;;;;;4908829;29;20522;-58
2022/02/02 14:31:34;;;;;;;2.50;0.97;;;7.20;99.90;;;;;;4851288;29;20555;-58
2022/02/02 14:34:01;;;;;;;2.90;0.70;;;7.00;99.90;;;;;;4851278;29;20453;-58
2022/02/02 14:36:33;;;;;;;0.90;0.60;;;6.90;99.90;;;;;;4879104;29;20444;-57
2022/02/02 14:39:10;;;;;;;1.53;0.70;;;6.90;99.90;;;;;;4909833;29;20440;-60
2022/02/02 14:41:40;;;;;;;0.93;0.70;;;6.80;99.90;;;;;;4908158;29;20965;-58
2022/02/02 14:44:14;;;;;;;2.50;0.73;;;6.80;99.90;;;;;;4907990;29;20501;-58
2022/02/02 14:46:48;;;;;;;1.13;0.80;;;6.80;99.90;;;;;;4908050;29;20439;-61
2022/02/02 14:49:19;;;;;;;1.43;1.10;;;6.80;99.90;;;;;;4908499;29;20437;-59
2022/02/02 14:51:53;;;;;;;1.30;0.83;;;6.80;99.90;;;;;;4907923;29;20445;-58
2022/02/02 15:06:27;;;;;;;1.63;0.70;;;6.70;99.90;;;;;;4907376;29;20569;-56
2022/02/02 15:28:15;;;;;;;1.00;0.80;;;6.50;99.90;;;;;;4907828;29;20504;-60
2022/02/02 15:30:51;;;;;;;1.50;0.80;;;6.50;99.90;;;;;;4907072;29;20557;-59
2022/02/02 15:33:22;;;;;;;3.37;1.00;;;6.50;99.90;;;;;;4907476;29;20480;-62
2022/02/02 15:36:00;;;;;;;1.40;0.93;;;6.40;99.90;;;;;;4907152;29;20479;-59
2022/02/02 15:38:28;;;;;;;1.83;0.90;;;6.50;99.90;;;;;;4907241;29;20491;-61
2022/02/02 15:41:00;;;;;;;7.97;1.03;;;6.40;99.90;;;;;;4907333;29;20451;-57
2022/02/02 15:43:36;;;;;;;1.57;1.00;;;6.30;99.90;;;;;;4906556;29;20483;-61
2022/02/02 16:00:35;;;;;;;3.97;1.33;;;5.90;99.90;;;;;;4901574;29;20491;-62
2022/02/02 16:03:07;;;;;;;6.10;0.87;;;5.90;99.90;;;;;;4908571;29;20546;-55
2022/02/02 16:05:44;;;;;;;3.67;1.87;;;5.90;99.90;;;;;;4907697;29;20503;-58
2022/02/02 16:08:14;;;;;;;2.40;1.63;;;5.80;99.90;;;;;;4907891;29;20444;-60
2022/02/02 16:10:47;;;;;;;2.60;0.90;;;5.80;99.90;;;;;;4908144;29;20534;-61
2022/02/02 16:13:30;;;;;;;2.47;1.30;;;5.80;99.90;;;;;;4907374;29;20913;-60
2022/02/02 16:16:02;;;;;;;2.10;0.87;;;5.70;99.90;;;;;;4907648;29;20436;-57
2022/02/02 16:18:44;;;;;;;10.50;1.57;;;5.70;99.90;;;;;;4907858;29;20436;-60
2022/02/02 16:32:48;;;;;;;8.23;1.63;;;5.70;99.90;;;;;;4912206;29;20426;-61
2022/02/02 16:35:40;;;;;;;3.93;1.40;;;5.70;99.90;;;;;;4911933;29;20450;-58
2022/02/02 16:38:11;;;;;;;2.40;1.17;;;5.70;99.90;;;;;;4913004;29;20449;-59
2022/02/02 16:40:42;;;;;;;3.00;1.07;;;5.60;99.90;;;;;;4912288;29;20801;-60
2022/02/02 16:43:13;;;;;;;3.33;1.13;;;5.60;99.90;;;;;;4912459;29;20438;-58
2022/02/02 16:45:45;;;;;;;5.40;1.47;;;5.60;99.90;;;;;;4911757;29;20483;-57
2022/02/02 16:48:12;;;;;;;3.17;1.63;;;5.60;99.90;;;;;;4910847;29;20568;-60
2022/02/02 16:50:42;;;;;;;12.03;1.87;;;5.60;99.90;;;;;;4911519;29;20475;-60
2022/02/02 16:53:24;;;;;;;3.07;1.37;;;5.70;99.90;;;;;;4910562;29;20466;-59
2022/02/02 16:55:59;;;;;;;4.57;2.30;;;5.70;99.90;;;;;;4911391;29;20527;-60
2022/02/02 17:31:25;;;;;;;1.57;0.93;;;5.40;99.90;;;;;;4902233;29;20436;-59
2022/02/02 17:33:56;;;;;;;6.23;1.40;;;5.40;99.90;;;;;;4903306;29;20482;-61
2022/02/02 17:36:28;;;;;;;4.50;1.10;;;5.50;99.90;;;;;;4902499;29;20456;-58
2022/02/02 17:39:00;;;;;;;3.43;1.83;;;5.40;99.90;;;;;;4902677;29;20583;-61
2022/02/02 17:41:44;;;;;;;6.50;2.77;;;5.40;99.90;;;;;;4902626;29;20539;-58
2022/02/02 18:12:37;;;;;;;10.97;5.57;;;5.50;99.90;;;;;;5105092;28;20453;-57
2022/02/02 18:20:29;;;;;;;9.20;2.00;;;5.40;99.90;;;;;;5098765;28;20445;-57
2022/02/02 18:23:03;;;;;;;10.40;2.27;;;5.40;99.90;;;;;;5094640;28;20490;-55
2022/02/02 18:25:37;;;;;;;11.73;2.13;;;5.40;99.90;;;;;;5101709;28;20575;-52
2022/02/02 18:28:10;;;;;;;2.23;1.50;;;5.50;99.90;;;;;;5107852;28;20422;-59
2022/02/02 18:30:48;;;;;;;10.93;2.10;;;5.40;99.90;;;;;;5101792;28;20475;-59
2022/02/02 18:33:28;;;;;;;4.27;1.63;;;5.40;99.90;;;;;;5106104;28;20423;-53
2022/02/02 18:36:03;;;;;;;2.43;1.43;;;5.40;99.90;;;;;;5101590;28;20564;-56
2022/02/02 18:46:56;;;;;;;6.03;1.90;;;5.20;99.90;;;;;;5091839;28;20449;-57
2022/02/02 18:49:35;;;;;;;10.53;2.80;;;5.10;99.90;;;;;;5093485;28;20489;-57
2022/02/02 18:55:11;;;;;;;7.80;1.70;;;5.10;99.90;;;;;;5032841;28;20500;-58
2022/02/02 18:57:48;;;;;;;4.73;1.87;;;5.10;99.90;;;;;;5100304;28;20469;-53
2022/02/02 19:00:46;;;;;;;8.90;2.00;;;5.10;99.90;;;;;;5111565;28;20464;-56
2022/02/02 19:37:11;;;;;;;7.10;2.97;;;5.10;99.90;;;;;;5082897;28;20481;-61
2022/02/02 19:37:25;;;;;;;4.00;1.37;;;5.00;99.90;;;;;;5070553;28;20414;-60
2022/02/02 19:40:16;;;;;;;3.40;1.70;;;4.80;99.90;;;;;;5082865;28;20528;-53
2022/02/02 19:56:40;;;;;;;1.70;1.43;;;4.90;99.90;;;;;;5099863;28;20401;-56
2022/02/02 20:02:08;;;;;;;1.73;1.27;;;5.00;99.90;;;;;;5097937;28;20466;-53
2022/02/02 20:07:40;;;;;;;2.77;1.30;;;4.90;99.90;;;;;;5087109;28;20482;-56
2022/02/02 20:10:28;;;;;;;6.93;1.40;;;4.90;99.90;;;;;;5106862;28;20473;-54
2022/02/02 20:12:58;;;;;;;6.60;1.87;;;4.90;99.90;;;;;;5093324;28;20774;-59
2022/02/02 20:15:26;;;;;;;2.80;1.70;;;4.90;99.90;;;;;;5092656;28;20557;-57
2022/02/02 20:17:56;;;;;;;2.20;1.33;;;5.00;99.90;;;;;;5107479;28;20441;-56
2022/02/02 20:20:24;;;;;;;9.73;2.23;;;5.00;99.90;;;;;;5097107;28;20481;-56
2022/02/02 20:22:52;;;;;;;7.03;2.30;;;5.00;99.90;;;;;;5093637;28;20461;-41
2022/02/02 20:25:19;;;;;;;4.00;1.77;;;5.00;99.90;;;;;;5094525;28;20534;-50
2022/02/02 20:28:02;;;;;;;3.73;1.73;;;5.10;99.90;;;;;;5098091;28;20508;-52
2022/02/02 20:30:31;;;;;;;5.70;0.83;;;5.10;99.90;;;;;;5087313;28;20919;-59
2022/02/02 20:32:57;;;;;;;4.00;1.43;;;5.00;99.90;;;;;;5083393;28;20455;-59
2022/02/02 20:35:24;;;;;;;10.20;2.60;;;5.00;99.90;;;;;;5091720;28;20867;-58
2022/02/02 20:37:51;;;;;;;7.73;1.23;;;5.00;99.90;;;;;;5093533;28;20430;-42
2022/02/02 20:40:18;;;;;;;7.90;2.60;;;4.90;99.90;;;;;;5086468;28;20469;-60
2022/02/02 20:42:54;;;;;;;5.23;1.20;;;4.90;99.90;;;;;;5077211;28;20467;-58
2022/02/02 20:45:47;;;;;;;1.90;1.10;;;4.80;99.90;;;;;;5089762;28;20467;-59
2022/02/02 21:04:56;;;;;;;5.80;2.93;;;4.70;99.90;;;;;;5092700;28;20426;-54
2022/02/02 21:07:34;;;;;;;2.83;1.47;;;4.70;99.90;;;;;;5091528;28;20524;-58
2022/02/02 21:10:04;;;;;;;4.63;1.87;;;4.60;99.90;;;;;;5091313;28;20906;-57
2022/02/02 21:15:22;;;;;;;5.63;1.77;;;4.70;99.90;;;;;;5091474;28;20449;-55
2022/02/02 21:17:50;;;;;;;5.27;2.27;;;4.70;99.90;;;;;;5091280;28;20446;-54
2022/02/02 21:20:25;;;;;;;2.17;1.50;;;4.70;99.90;;;;;;5091537;28;20455;-54
2022/02/02 21:22:57;;;;;;;5.90;1.33;;;4.70;99.90;;;;;;5091387;28;20442;-58
2022/02/02 21:25:48;;;;;;;4.27;1.93;;;4.60;99.90;;;;;;5091899;28;20442;-56
2022/02/02 21:28:17;;;;;;;5.17;1.27;;;4.60;99.90;;;;;;5092064;28;20466;-58
2022/02/02 21:30:45;;;;;;;1.57;1.10;;;4.50;99.90;;;;;;5090666;28;20469;-56